Disclaimer

Please do not use the information listed here in-flight or in-navigation, as they are not provided to us by the airports but are provided by volunteers, so they might be outdated.

Search


Regions


Airport information page

Radio informations:
Tower (TWR) - 118.7 MHz
RDO - 5447.5 MHz
Clearance delivery - 125.2 MHz
Automatic Terminal Information Service (ATIS) - 113.1 MHz
Approach (APP) - 119.2 MHz

Airport informations:
Latitude: 15° 11' 09.56" N
Longitude: 120° 33' 37.17" E
Elevation: 484 feet - 148 meters
Operating hours: N/A
Operating agency: Civil government, landing fees and diplomatic clearance may be required
Timezone: UTC+8
Fuel: N/A

Runway information:
02R/20L - 10499 x 197 feet< - >3200 x 60 meters
02L/20R - 10499 x 148 feet< - >3200 x 45 meters

Recent METARs:
RPLC 211900Z 34004KT 9999 SCT020 OVC100 25/22 Q1011 NOSIG RMK A2985
RPLC 212000Z 34004KT 9999 SCT020 OVC100 25/22 Q1011 NOSIG RMK A2985
RPLC 212000Z 34004KT 9999 SCT020 OVC100 25/22 Q1011 NOSIG RMK A2985

Airport on the map: